This is the latest recevied weather packets stored in our database for station/object IU2PLZ-10. If no packets are shown the sender has not sent any weather packets the latest 1 day(s).
| Time | Temp. | Humidity | Pressure | Rain* | Wind** | Luminosity | Snow |
|---|---|---|---|---|---|---|---|
| 1778061800 | 25° C | 38% | 963.4 hPa | - | - | - | - |
| 1778060900 | 25° C | 38% | 963.9 hPa | - | - | - | - |
| 1778058199 | 25° C | 37% | 963 hPa | - | - | - | - |
| 1778057299 | 24.44° C | 39% | 963.8 hPa | - | - | - | - |
| 1778056399 | 23.89° C | 40% | 963.8 hPa | - | - | - | - |
| 1778053698 | 22.22° C | 41% | 963.2 hPa | - | - | - | - |
| 1778052798 | 23.33° C | 43% | 964.1 hPa | - | - | - | - |
| 1778051898 | 22.22° C | 44% | 963.6 hPa | - | - | - | - |
| 1778048297 | 21.67° C | 45% | 963.6 hPa | - | - | - | - |
| 1778046497 | 22.78° C | 48% | 964.4 hPa | - | - | - | - |
| 1778045597 | 21.67° C | 53% | 963.6 hPa | - | - | - | - |
| 1778043796 | 19.44° C | 52% | 964.1 hPa | - | - | - | - |
| 1778041996 | 18.89° C | 54% | 964.1 hPa | - | - | - | - |
| 1778041096 | 18.33° C | 55% | 963.6 hPa | - | - | - | - |
| 1778040196 | 18.33° C | 57% | 964.2 hPa | - | - | - | - |
| 1778038395 | 18.33° C | 56% | 964.1 hPa | - | - | - | - |
| 1778037495 | 17.78° C | 56% | 963.3 hPa | - | - | - | - |
| 1778036595 | 18.33° C | 57% | 964.1 hPa | - | - | - | - |
| 1778035695 | 18.33° C | 56% | 964.2 hPa | - | - | - | - |
| 1778034795 | 17.78° C | 55% | 963.4 hPa | - | - | - | - |
| 1778033894 | 17.78° C | 55% | 963.3 hPa | - | - | - | - |
| 1778032094 | 19.44° C | 46% | 964.1 hPa | - | - | - | - |
| 1778031194 | 20° C | 43% | 964 hPa | - | - | - | - |
* Rain since midnight (hover to see other rain measurements)
** Current wind speed in m/s (hover to see current wind gust speed)